Time;durP1;ratioP1;P1;durP2;ratioP2;P2;SDS_P1;SDS_P2;PMS_P1;PMS_P2;Temp;Humidity;BMP_temperature;BMP_pressure;BME280_temperature;BME280_humidity;BME280_pressure;Samples;Min_cycle;Max_cycle;Signal;HPM_P1;HPM_P2
2022/06/17 00:02:04;;;;;;;2.10;1.58;;;;;;;;;;10371283;28;20042;-67
2022/06/17 00:07:14;;;;;;;1.88;1.40;;;;;;;;;;10357309;28;20050;-67
2022/06/17 00:12:17;;;;;;;1.40;1.30;;;;;;;;;;10371131;28;20245;-67
2022/06/17 00:17:20;;;;;;;1.98;1.63;;;;;;;;;;10370728;28;20053;-67
2022/06/17 00:22:25;;;;;;;1.57;1.47;;;;;;;;;;10361951;28;20354;-67
2022/06/17 00:27:27;;;;;;;2.80;1.83;;;;;;;;;;10369802;28;20050;-67
2022/06/17 00:32:31;;;;;;;2.33;2.08;;;;;;;;;;10369728;28;20238;-68
2022/06/17 00:37:33;;;;;;;2.37;1.97;;;;;;;;;;10356070;28;20053;-67
2022/06/17 00:42:36;;;;;;;4.13;2.15;;;;;;;;;;10369399;28;20049;-67
2022/06/17 00:47:48;;;;;;;2.13;1.85;;;;;;;;;;10369034;28;20043;-66
2022/06/17 00:52:57;;;;;;;6.93;2.80;;;;;;;;;;10355328;28;20157;-67
2022/06/17 00:58:02;;;;;;;3.67;2.08;;;;;;;;;;10368856;28;20046;-66
2022/06/17 01:03:10;;;;;;;2.33;1.70;;;;;;;;;;10368894;28;20042;-66
2022/06/17 01:09:56;;;;;;;3.15;1.98;;;;;;;;;;10368463;28;20237;-66
2022/06/17 01:13:41;;;;;;;2.55;2.03;;;;;;;;;;10356119;28;20038;-68
2022/06/17 01:18:47;;;;;;;2.40;1.90;;;;;;;;;;10368302;28;20042;-67
2022/06/17 01:23:51;;;;;;;2.55;1.80;;;;;;;;;;10355629;28;20069;-66
2022/06/17 01:28:54;;;;;;;2.10;1.92;;;;;;;;;;10368087;28;20050;-66
2022/06/17 01:33:57;;;;;;;2.60;2.40;;;;;;;;;;10368055;28;20046;-66
2022/06/17 01:39:01;;;;;;;2.33;2.05;;;;;;;;;;10354907;28;20050;-66
2022/06/17 01:44:10;;;;;;;2.05;1.95;;;;;;;;;;10367866;28;20334;-67
2022/06/17 01:49:15;;;;;;;3.03;2.08;;;;;;;;;;10354572;28;20050;-67
2022/06/17 01:54:24;;;;;;;2.83;2.35;;;;;;;;;;10367583;28;20042;-67
2022/06/17 01:59:29;;;;;;;2.22;1.95;;;;;;;;;;10357666;28;20050;-67
2022/06/17 02:04:34;;;;;;;7.47;3.80;;;;;;;;;;10362216;28;20054;-68
2022/06/17 02:09:39;;;;;;;5.88;3.67;;;;;;;;;;10361463;28;20123;-67
2022/06/17 02:14:42;;;;;;;5.57;3.30;;;;;;;;;;10374983;28;20042;-67
2022/06/17 02:19:47;;;;;;;5.75;2.80;;;;;;;;;;10373443;28;20046;-67
2022/06/17 02:24:53;;;;;;;10.68;2.80;;;;;;;;;;10364352;28;20054;-67
2022/06/17 02:29:56;;;;;;;4.13;2.70;;;;;;;;;;10374362;28;20085;-67
2022/06/17 02:35:05;;;;;;;3.15;2.53;;;;;;;;;;10374221;28;20049;-67
2022/06/17 02:40:29;;;;;;;3.83;2.83;;;;;;;;;;10373985;28;20053;-67
2022/06/17 02:45:36;;;;;;;2.90;2.40;;;;;;;;;;10373892;28;20060;-67
2022/06/17 02:50:39;;;;;;;2.05;1.95;;;;;;;;;;10373525;28;20292;-67
2022/06/17 02:55:43;;;;;;;2.47;2.17;;;;;;;;;;10373486;28;20049;-66
2022/06/17 03:00:50;;;;;;;3.00;2.13;;;;;;;;;;10373237;28;20218;-67
2022/06/17 03:05:52;;;;;;;3.13;2.25;;;;;;;;;;10372822;28;20057;-67
2022/06/17 03:10:59;;;;;;;2.70;2.50;;;;;;;;;;10371653;28;20045;-67
2022/06/17 03:16:04;;;;;;;4.50;4.10;;;;;;;;;;10359593;28;20051;-68
2022/06/17 03:21:07;;;;;;;2.67;2.42;;;;;;;;;;10367272;28;20038;-67
2022/06/17 03:26:14;;;;;;;5.03;4.65;;;;;;;;;;10358286;28;20350;-67
2022/06/17 03:31:23;;;;;;;2.65;2.17;;;;;;;;;;10358359;28;20054;-67
2022/06/17 03:36:31;;;;;;;1.60;1.50;;;;;;;;;;10371749;28;20046;-67
2022/06/17 03:41:43;;;;;;;1.70;1.60;;;;;;;;;;10371534;28;20065;-67
2022/06/17 03:46:51;;;;;;;1.20;1.20;;;;;;;;;;10371165;28;20061;-67
2022/06/17 03:52:00;;;;;;;1.25;1.13;;;;;;;;;;10371235;28;20042;-67
2022/06/17 03:57:10;;;;;;;2.85;1.50;;;;;;;;;;10371146;28;20053;-67
2022/06/17 04:02:14;;;;;;;2.67;1.60;;;;;;;;;;10371047;28;20046;-68
2022/06/17 04:07:17;;;;;;;2.03;1.10;;;;;;;;;;10370576;28;20223;-68
2022/06/17 04:12:26;;;;;;;3.47;1.02;;;;;;;;;;10356847;28;20050;-69
2022/06/17 04:17:32;;;;;;;0.75;0.75;;;;;;;;;;10356615;28;20054;-68
2022/06/17 04:22:36;;;;;;;1.35;0.82;;;;;;;;;;10355706;28;20057;-68
2022/06/17 04:27:59;;;;;;;0.80;0.77;;;;;;;;;;10369547;28;20242;-68
2022/06/17 04:33:06;;;;;;;6.30;1.30;;;;;;;;;;10369575;28;20042;-68
2022/06/17 04:38:10;;;;;;;1.10;1.00;;;;;;;;;;10369446;28;20046;-68
2022/06/17 04:43:22;;;;;;;0.10;0.10;;;;;;;;;;10355517;28;20058;-68
2022/06/17 04:48:25;;;;;;;0.00;0.00;;;;;;;;;;10355378;28;20053;-68
2022/06/17 04:53:29;;;;;;;0.00;0.00;;;;;;;;;;10369015;28;20060;-69
2022/06/17 04:58:33;;;;;;;0.00;0.00;;;;;;;;;;10368937;28;20065;-69
2022/06/17 05:03:36;;;;;;;0.00;0.00;;;;;;;;;;10368762;28;20241;-69
2022/06/17 05:08:42;;;;;;;0.00;0.00;;;;;;;;;;10368650;28;20042;-69
2022/06/17 05:13:53;;;;;;;0.00;0.00;;;;;;;;;;10363478;28;20356;-69
2022/06/17 05:18:56;;;;;;;0.00;0.00;;;;;;;;;;10355686;28;20244;-69
2022/06/17 05:24:00;;;;;;;0.20;0.20;;;;;;;;;;10350622;28;20058;-68
2022/06/17 05:29:06;;;;;;;0.10;0.10;;;;;;;;;;10354927;28;20058;-69
2022/06/17 05:34:09;;;;;;;0.10;0.10;;;;;;;;;;10371670;28;20043;-69
2022/06/17 05:39:13;;;;;;;0.20;0.20;;;;;;;;;;10361882;28;20050;-69
2022/06/17 05:44:17;;;;;;;0.30;0.30;;;;;;;;;;10376431;28;20318;-69
2022/06/17 05:49:19;;;;;;;0.40;0.40;;;;;;;;;;10362378;28;20050;-70
2022/06/17 05:54:22;;;;;;;0.50;0.50;;;;;;;;;;10374734;28;20042;-69
2022/06/17 05:59:26;;;;;;;0.75;0.75;;;;;;;;;;10375186;28;20046;-69
2022/06/17 06:04:30;;;;;;;1.00;1.00;;;;;;;;;;10361526;28;20070;-69
2022/06/17 06:09:33;;;;;;;1.10;1.10;;;;;;;;;;10361045;28;20050;-69
2022/06/17 06:14:37;;;;;;;1.65;1.65;;;;;;;;;;10374727;28;20049;-68
2022/06/17 06:19:40;;;;;;;2.30;2.30;;;;;;;;;;10361811;28;20242;-68
2022/06/17 06:24:43;;;;;;;3.10;3.00;;;;;;;;;;10363782;28;20077;-69
2022/06/17 06:29:46;;;;;;;4.20;4.10;;;;;;;;;;10374653;28;20046;-68
2022/06/17 06:34:49;;;;;;;5.40;5.20;;;;;;;;;;10374539;28;20038;-68
2022/06/17 06:39:52;;;;;;;6.63;6.43;;;;;;;;;;10368724;28;20237;-69
2022/06/17 06:44:56;;;;;;;8.68;8.38;;;;;;;;;;10373766;28;20042;-68
2022/06/17 06:49:58;;;;;;;11.20;10.70;;;;;;;;;;10373892;28;20053;-68
2022/06/17 06:55:02;;;;;;;13.13;12.52;;;;;;;;;;10371001;28;20042;-69
2022/06/17 07:00:08;;;;;;;15.60;14.90;;;;;;;;;;10373098;28;20046;-69
2022/06/17 07:05:11;;;;;;;18.63;17.73;;;;;;;;;;10373278;28;20049;-70
2022/06/17 07:10:17;;;;;;;21.58;20.48;;;;;;;;;;10373173;28;20062;-69
2022/06/17 07:15:22;;;;;;;25.48;24.17;;;;;;;;;;10372114;28;20038;-69
2022/06/17 07:20:26;;;;;;;29.85;28.25;;;;;;;;;;10368739;28;20242;-70
2022/06/17 07:25:29;;;;;;;33.63;31.80;;;;;;;;;;10360861;28;20058;-68
2022/06/17 07:30:35;;;;;;;35.28;33.30;;;;;;;;;;10372386;28;20046;-69
2022/06/17 07:35:38;;;;;;;42.13;39.72;;;;;;;;;;10372024;28;20042;-69
2022/06/17 07:40:47;;;;;;;50.63;47.63;;;;;;;;;;10372242;28;20051;-70
2022/06/17 07:45:52;;;;;;;58.20;54.60;;;;;;;;;;10372183;28;20324;-70
2022/06/17 07:50:58;;;;;;;62.70;58.73;;;;;;;;;;10357307;28;20061;-69
2022/06/17 07:56:01;;;;;;;48.35;45.53;;;;;;;;;;10370853;28;20042;-69
2022/06/17 08:01:06;;;;;;;69.78;65.28;;;;;;;;;;10370605;28;20360;-70
2022/06/17 08:06:11;;;;;;;19.20;18.30;;;;;;;;;;10370990;28;20049;-70
2022/06/17 08:11:15;;;;;;;3.10;3.00;;;;;;;;;;10370681;28;20046;-69
2022/06/17 08:16:19;;;;;;;7.32;7.07;;;;;;;;;;10370031;28;20038;-69
2022/06/17 08:21:24;;;;;;;28.95;27.42;;;;;;;;;;10364363;28;20069;-68
2022/06/17 08:26:27;;;;;;;25.00;23.70;;;;;;;;;;10367948;28;20046;-69
2022/06/17 08:31:31;;;;;;;1.70;1.70;;;;;;;;;;10370000;28;20046;-69
2022/06/17 08:36:36;;;;;;;0.93;0.93;;;;;;;;;;10356326;28;20061;-69
2022/06/17 08:41:49;;;;;;;6.43;6.22;;;;;;;;;;10342702;28;20058;-70
2022/06/17 08:47:12;;;;;;;1.75;1.75;;;;;;;;;;10329196;28;20043;-70
2022/06/17 08:52:26;;;;;;;2.88;2.78;;;;;;;;;;10313818;28;20054;-70
2022/06/17 08:57:37;;;;;;;2.85;2.75;;;;;;;;;;10337282;28;20054;-68
2022/06/17 09:03:14;;;;;;;0.00;0.00;;;;;;;;;;10355794;28;20054;-70
2022/06/17 09:08:47;;;;;;;5.47;5.28;;;;;;;;;;10354161;28;20221;-69
2022/06/17 09:14:13;;;;;;;29.88;28.27;;;;;;;;;;10354291;28;20058;-69
2022/06/17 09:19:30;;;;;;;36.45;34.45;;;;;;;;;;10368531;28;20046;-69
2022/06/17 09:24:39;;;;;;;21.40;20.30;;;;;;;;;;10353492;28;20058;-70
2022/06/17 09:29:47;;;;;;;2.30;2.30;;;;;;;;;;10352805;28;20109;-68
2022/06/17 09:34:57;;;;;;;7.45;7.15;;;;;;;;;;10368148;28;20046;-68
2022/06/17 09:40:01;;;;;;;;;;;;;;;;;;10355059;28;20058;-69
2022/06/17 09:45:09;;;;;;;2.00;2.00;;;;;;;;;;10365670;28;19918;-69
2022/06/17 09:50:18;;;;;;;0.30;0.30;;;;;;;;;;10367789;28;20333;-69
2022/06/17 09:55:24;;;;;;;0.00;0.00;;;;;;;;;;10353576;28;20042;-69
2022/06/17 10:00:30;;;;;;;0.00;0.00;;;;;;;;;;10367751;28;20337;-69
2022/06/17 10:05:42;;;;;;;0.00;0.00;;;;;;;;;;10368071;28;20035;-69
2022/06/17 10:10:53;;;;;;;0.00;0.00;;;;;;;;;;10366847;28;20047;-68
2022/06/17 10:21:42;;;;;;;0.00;0.00;;;;;;;;;;10359364;28;20050;-68
2022/06/17 10:27:03;;;;;;;0.00;0.00;;;;;;;;;;10372010;28;20299;-69
2022/06/17 10:32:07;;;;;;;0.10;0.10;;;;;;;;;;10374968;28;20043;-68
2022/06/17 10:37:12;;;;;;;0.00;0.00;;;;;;;;;;10360965;28;20249;-69
2022/06/17 10:42:29;;;;;;;0.00;0.00;;;;;;;;;;10361213;28;20042;-70
2022/06/17 10:47:40;;;;;;;0.00;0.00;;;;;;;;;;10374115;28;20046;-68
2022/06/17 10:52:51;;;;;;;0.17;0.10;;;;;;;;;;10360502;28;20062;-68
2022/06/17 10:58:17;;;;;;;0.80;0.10;;;;;;;;;;10360352;28;20053;-69
2022/06/17 11:03:29;;;;;;;0.30;0.30;;;;;;;;;;10372606;28;20038;-69
2022/06/17 11:08:35;;;;;;;;;;;;;;;;;;10373809;28;20046;-68
2022/06/17 11:13:39;;;;;;;2.47;1.05;;;;;;;;;;10358630;28;19926;-68
2022/06/17 11:18:43;;;;;;;1.15;0.88;;;;;;;;;;10372111;28;20050;-68
2022/06/17 11:23:51;;;;;;;4.15;1.05;;;;;;;;;;10358931;28;20066;-68
2022/06/17 11:28:56;;;;;;;4.68;1.05;;;;;;;;;;10371597;28;20253;-68
2022/06/17 11:34:02;;;;;;;2.15;1.02;;;;;;;;;;10357837;28;20050;-68
2022/06/17 11:39:27;;;;;;;5.82;1.60;;;;;;;;;;10371825;28;20053;-68
2022/06/17 11:44:30;;;;;;;2.90;1.38;;;;;;;;;;10371356;28;20042;-68
2022/06/17 11:49:37;;;;;;;1.33;0.80;;;;;;;;;;10371732;28;20046;-68
2022/06/17 11:54:49;;;;;;;2.25;0.70;;;;;;;;;;10357748;28;20072;-68
2022/06/17 11:59:54;;;;;;;0.93;0.77;;;;;;;;;;10370603;28;20053;-68
2022/06/17 12:05:07;;;;;;;2.65;1.38;;;;;;;;;;10371108;28;20361;-68
2022/06/17 12:10:34;;;;;;;3.55;1.27;;;;;;;;;;10371054;28;20241;-68
2022/06/17 12:15:42;;;;;;;3.38;1.38;;;;;;;;;;10369862;28;20038;-67
2022/06/17 12:20:54;;;;;;;1.90;0.95;;;;;;;;;;10356929;28;20057;-68
2022/06/17 12:26:03;;;;;;;1.80;1.00;;;;;;;;;;10358259;28;20054;-67
2022/06/17 12:31:15;;;;;;;2.90;1.35;;;;;;;;;;10369577;28;20053;-68
2022/06/17 12:36:23;;;;;;;3.97;1.80;;;;;;;;;;10369115;28;20049;-68
2022/06/17 12:41:33;;;;;;;2.45;1.75;;;;;;;;;;10369643;28;20065;-67
2022/06/17 12:46:43;;;;;;;1.90;1.17;;;;;;;;;;10369153;28;20042;-67
2022/06/17 12:57:25;;;;;;;17.80;4.63;;;;;;;;;;10369592;28;20042;-68
2022/06/17 13:02:36;;;;;;;4.38;2.03;;;;;;;;;;10355524;28;20050;-68
2022/06/17 13:08:08;;;;;;;1.73;1.00;;;;;;;;;;10368852;28;20058;-68
2022/06/17 13:13:34;;;;;;;4.10;1.33;;;;;;;;;;10355453;28;20054;-68
2022/06/17 13:18:45;;;;;;;1.73;1.10;;;;;;;;;;10367855;28;20065;-68
2022/06/17 13:23:55;;;;;;;1.92;1.13;;;;;;;;;;10356425;28;20070;-69
2022/06/17 13:29:03;;;;;;;4.00;1.58;;;;;;;;;;10368429;28;20046;-68
2022/06/17 13:34:11;;;;;;;4.95;1.35;;;;;;;;;;10367743;28;20085;-68
2022/06/17 13:39:18;;;;;;;1.02;0.90;;;;;;;;;;10367222;28;20148;-68
2022/06/17 13:44:32;;;;;;;1.85;1.35;;;;;;;;;;10367961;28;20042;-68
2022/06/17 13:49:42;;;;;;;4.72;1.02;;;;;;;;;;10368452;28;20043;-68
2022/06/17 13:54:57;;;;;;;3.60;1.83;;;;;;;;;;10356810;28;20054;-69
2022/06/17 14:00:47;;;;;;;2.15;1.90;;;;;;;;;;10362915;28;20072;-68
2022/06/17 14:06:09;;;;;;;7.07;3.33;;;;;;;;;;10328890;28;20380;-68
2022/06/17 14:16:33;;;;;;;5.15;1.80;;;;;;;;;;10375124;28;20046;-68
2022/06/17 14:21:46;;;;;;;3.80;2.05;;;;;;;;;;10368417;28;20046;-67
2022/06/17 14:26:53;;;;;;;1.00;0.90;;;;;;;;;;10373873;28;20042;-68
2022/06/17 14:31:59;;;;;;;2.30;1.20;;;;;;;;;;10361288;28;20058;-68
2022/06/17 14:37:06;;;;;;;1.23;0.90;;;;;;;;;;10374058;28;20053;-69
2022/06/17 14:42:14;;;;;;;1.10;1.00;;;;;;;;;;10360679;28;20057;-68
2022/06/17 14:47:38;;;;;;;2.05;1.08;;;;;;;;;;10374286;28;20190;-69
2022/06/17 14:52:45;;;;;;;3.45;1.10;;;;;;;;;;10360262;28;20219;-69
2022/06/17 14:58:12;;;;;;;0.70;0.70;;;;;;;;;;10373973;28;20043;-69
2022/06/17 15:03:32;;;;;;;4.55;1.10;;;;;;;;;;10372286;28;20038;-68
2022/06/17 15:08:39;;;;;;;1.35;1.00;;;;;;;;;;10360286;28;20368;-68
2022/06/17 15:19:09;;;;;;;1.88;0.90;;;;;;;;;;10331400;28;20058;-68
2022/06/17 15:24:21;;;;;;;1.90;1.20;;;;;;;;;;10358885;28;20062;-68
2022/06/17 15:29:27;;;;;;;3.53;1.05;;;;;;;;;;10371597;28;20325;-69
2022/06/17 15:34:34;;;;;;;1.42;0.85;;;;;;;;;;10372174;28;20042;-68
2022/06/17 15:39:45;;;;;;;5.30;1.20;;;;;;;;;;10371972;28;20068;-68
2022/06/17 15:44:57;;;;;;;7.63;2.15;;;;;;;;;;10372256;28;20042;-68
2022/06/17 15:50:04;;;;;;;2.25;1.08;;;;;;;;;;10371526;28;20325;-69
2022/06/17 15:55:14;;;;;;;6.18;1.20;;;;;;;;;;10357222;28;20054;-67
2022/06/17 16:00:21;;;;;;;12.85;2.92;;;;;;;;;;10357759;28;20050;-69
2022/06/17 16:05:29;;;;;;;2.03;1.20;;;;;;;;;;10371149;28;20042;-68
2022/06/17 16:10:34;;;;;;;3.42;1.40;;;;;;;;;;10369984;28;20049;-68
2022/06/17 16:15:40;;;;;;;4.30;1.67;;;;;;;;;;10370522;28;20049;-68
2022/06/17 16:20:44;;;;;;;4.03;1.40;;;;;;;;;;10356974;28;20352;-67
2022/06/17 16:25:47;;;;;;;4.57;1.50;;;;;;;;;;10355802;28;20066;-69
2022/06/17 16:30:52;;;;;;;1.60;1.15;;;;;;;;;;10369977;28;20042;-68
2022/06/17 16:36:00;;;;;;;7.18;2.33;;;;;;;;;;10369905;28;20049;-68
2022/06/17 16:46:50;;;;;;;4.15;1.55;;;;;;;;;;10328875;28;20238;-68
2022/06/17 16:51:54;;;;;;;8.70;2.30;;;;;;;;;;10329106;28;20043;-68
2022/06/17 16:57:00;;;;;;;9.45;2.65;;;;;;;;;;10336023;28;20038;-68
2022/06/17 17:02:02;;;;;;;9.40;2.22;;;;;;;;;;10369332;28;20046;-67
2022/06/17 17:07:06;;;;;;;4.65;2.20;;;;;;;;;;10355796;28;20061;-68
2022/06/17 17:12:10;;;;;;;11.13;2.90;;;;;;;;;;10354290;28;20053;-68
2022/06/17 17:17:13;;;;;;;6.55;2.20;;;;;;;;;;10368935;28;20042;-67
2022/06/17 17:22:21;;;;;;;11.50;3.93;;;;;;;;;;10353432;28;20250;-69
2022/06/17 17:27:23;;;;;;;9.68;2.92;;;;;;;;;;10368514;28;20049;-68
2022/06/17 17:32:26;;;;;;;10.43;3.80;;;;;;;;;;10354407;28;20046;-68
2022/06/17 17:37:31;;;;;;;6.47;2.67;;;;;;;;;;10367776;28;20336;-67
2022/06/17 17:42:33;;;;;;;10.98;3.20;;;;;;;;;;10355341;28;20073;-68
2022/06/17 17:47:35;;;;;;;3.03;1.90;;;;;;;;;;10354272;28;20061;-68
2022/06/17 17:52:39;;;;;;;4.75;2.10;;;;;;;;;;10367741;28;20053;-68
2022/06/17 17:57:43;;;;;;;2.70;2.47;;;;;;;;;;10354102;28;20074;-68
2022/06/17 18:02:46;;;;;;;11.32;3.72;;;;;;;;;;10367609;28;20053;-68
2022/06/17 18:07:51;;;;;;;12.50;4.53;;;;;;;;;;10367408;28;20042;-68
2022/06/17 18:12:56;;;;;;;12.75;3.75;;;;;;;;;;10367874;28;20053;-68
2022/06/17 18:17:58;;;;;;;13.73;5.88;;;;;;;;;;10365885;28;20042;-69
2022/06/17 18:23:02;;;;;;;5.18;2.60;;;;;;;;;;10353851;28;20062;-68
2022/06/17 18:28:06;;;;;;;4.18;2.65;;;;;;;;;;10367364;28;20046;-68
2022/06/17 18:33:12;;;;;;;4.97;2.67;;;;;;;;;;10366882;28;20050;-69
2022/06/17 18:38:16;;;;;;;7.38;3.72;;;;;;;;;;10367424;28;20042;-70
2022/06/17 18:43:21;;;;;;;4.38;2.45;;;;;;;;;;10372843;28;20148;-67
2022/06/17 18:48:25;;;;;;;6.47;3.53;;;;;;;;;;10357476;28;20061;-67
2022/06/17 18:53:29;;;;;;;8.38;3.00;;;;;;;;;;10359748;28;20238;-68
2022/06/17 18:58:32;;;;;;;4.35;3.00;;;;;;;;;;10374101;28;20050;-69
2022/06/17 19:03:37;;;;;;;4.65;2.75;;;;;;;;;;10373120;28;20053;-67
2022/06/17 19:19:23;;;;;;;11.00;3.97;;;;;;;;;;10371618;28;20049;-68
2022/06/17 19:24:28;;;;;;;11.88;4.88;;;;;;;;;;10365041;28;20061;-68
2022/06/17 19:29:30;;;;;;;7.97;3.70;;;;;;;;;;10372347;28;20047;-68
2022/06/17 19:34:34;;;;;;;10.77;3.95;;;;;;;;;;10371657;28;20242;-67
2022/06/17 19:39:40;;;;;;;9.20;3.45;;;;;;;;;;10359236;28;20281;-68
2022/06/17 19:44:43;;;;;;;3.28;2.75;;;;;;;;;;10358531;28;20058;-68
2022/06/17 19:49:51;;;;;;;8.65;2.70;;;;;;;;;;10357005;28;20057;-68
2022/06/17 19:54:56;;;;;;;5.68;2.47;;;;;;;;;;10371016;28;20054;-68
2022/06/17 20:00:00;;;;;;;8.98;3.50;;;;;;;;;;10371800;28;20330;-68
2022/06/17 20:05:04;;;;;;;9.27;3.08;;;;;;;;;;10370667;28;20114;-69
2022/06/17 20:10:08;;;;;;;5.05;3.65;;;;;;;;;;10371049;28;20065;-68
2022/06/17 20:15:12;;;;;;;7.47;4.65;;;;;;;;;;10369516;28;20049;-68
2022/06/17 20:20:15;;;;;;;8.07;5.40;;;;;;;;;;10368492;28;20243;-67
2022/06/17 20:25:21;;;;;;;4.43;2.97;;;;;;;;;;10357450;28;20070;-68
2022/06/17 20:30:25;;;;;;;4.70;2.83;;;;;;;;;;10369687;28;20042;-68
2022/06/17 20:35:27;;;;;;;3.95;3.30;;;;;;;;;;10370490;28;20038;-68
2022/06/17 20:40:36;;;;;;;6.32;3.38;;;;;;;;;;10370000;28;20046;-68
2022/06/17 20:51:04;;;;;;;9.30;5.18;;;;;;;;;;10370156;28;20069;-68
2022/06/17 20:56:14;;;;;;;6.35;4.10;;;;;;;;;;10369758;28;20042;-68
2022/06/17 21:01:19;;;;;;;10.38;4.55;;;;;;;;;;10369400;28;20050;-68
2022/06/17 21:06:25;;;;;;;9.68;5.25;;;;;;;;;;10355731;28;20046;-68
2022/06/17 21:11:31;;;;;;;8.50;4.22;;;;;;;;;;10355654;28;20282;-68
2022/06/17 21:16:34;;;;;;;13.48;5.13;;;;;;;;;;10367699;28;20081;-68
2022/06/17 21:21:38;;;;;;;7.82;4.38;;;;;;;;;;10353959;28;20050;-68
2022/06/17 21:26:42;;;;;;;10.47;4.30;;;;;;;;;;10369029;28;20048;-69
2022/06/17 21:31:45;;;;;;;8.82;4.18;;;;;;;;;;10354184;28;20116;-67
2022/06/17 21:36:49;;;;;;;6.70;3.40;;;;;;;;;;10355140;28;20137;-68
2022/06/17 21:41:53;;;;;;;6.25;3.20;;;;;;;;;;10368411;28;20042;-68
2022/06/17 21:46:56;;;;;;;11.90;3.25;;;;;;;;;;10368648;28;20330;-68
2022/06/17 21:52:01;;;;;;;5.40;3.10;;;;;;;;;;10368266;28;20054;-68
2022/06/17 21:57:12;;;;;;;3.97;3.00;;;;;;;;;;10354478;28;20117;-68
2022/06/17 22:02:20;;;;;;;3.25;2.72;;;;;;;;;;10354535;28;20046;-67
2022/06/17 22:07:25;;;;;;;8.90;3.17;;;;;;;;;;10354843;28;20125;-68
2022/06/17 22:12:31;;;;;;;5.30;3.17;;;;;;;;;;10354825;28;20237;-67
2022/06/17 22:17:34;;;;;;;5.65;2.70;;;;;;;;;;10373406;28;20042;-67
2022/06/17 22:22:39;;;;;;;3.05;2.55;;;;;;;;;;10366162;28;20066;-67
2022/06/17 22:27:43;;;;;;;6.82;2.58;;;;;;;;;;10375268;28;20044;-67
2022/06/17 22:32:46;;;;;;;4.95;2.70;;;;;;;;;;10375240;28;20101;-67
2022/06/17 22:37:52;;;;;;;6.73;3.00;;;;;;;;;;10374932;28;20094;-67
2022/06/17 22:42:57;;;;;;;4.28;2.97;;;;;;;;;;10374748;28;20049;-67
2022/06/17 22:48:02;;;;;;;4.88;2.97;;;;;;;;;;10361012;28;20050;-69
2022/06/17 22:53:07;;;;;;;6.78;2.67;;;;;;;;;;10360730;28;20050;-68
2022/06/17 22:58:12;;;;;;;3.33;2.90;;;;;;;;;;10360391;28;20050;-67
2022/06/17 23:08:41;;;;;;;3.25;2.53;;;;;;;;;;10373291;28;20101;-68
2022/06/17 23:13:46;;;;;;;3.22;2.53;;;;;;;;;;10360018;28;20218;-68
2022/06/17 23:24:16;;;;;;;12.10;3.58;;;;;;;;;;10359174;28;20061;-67
2022/06/17 23:29:20;;;;;;;8.57;4.00;;;;;;;;;;10371416;28;20145;-67
2022/06/17 23:34:23;;;;;;;12.15;3.92;;;;;;;;;;10372368;28;20052;-67
2022/06/17 23:39:26;;;;;;;8.50;4.53;;;;;;;;;;10372114;28;20045;-68
2022/06/17 23:44:30;;;;;;;7.13;4.35;;;;;;;;;;10372045;28;20233;-67
2022/06/17 23:49:37;;;;;;;9.35;5.60;;;;;;;;;;10371886;28;20264;-67
2022/06/17 23:54:40;;;;;;;12.52;5.20;;;;;;;;;;10371627;28;20101;-67
2022/06/17 23:59:44;;;;;;;9.65;4.72;;;;;;;;;;10371725;28;20034;-68
